« Back
NWS Peachtree City, Ga » Text Product » AHN Terminal Aerodrome Forecast


Printer-friendly Version
Current Version              Previous Versions:   1  2  3  4  5  6  7  8  9  

Terminal Aerodrome Forecast

140
FTAK31 PAJN 300537
TAFAHN
TAF
PAHN 300537Z 3006/0106 12006KT P6SM VCSH SCT015 BKN080
      TEMPO 3006/3010 08010G15KT BKN015
     FM301700 09010G20KT P6SM -RA SCT030 OVC040
     FM302000 09012G20KT 4SM -RA BR SCT010 BKN025 OVC040
      AMD LTD TO CLD VIS AND WIND=

USA.gov is the U.S. government's official web portal to all federal, state and local government web resources and services.